METAR Data
IDs: Format: Raw Decoded Include TAF

Data at: 0305 UTC 25 Feb 2021

RJGG 250230Z 32005KT 9999 FEW030 BKN/// 07/M06 Q1024 NOSIG